Time;durP1;ratioP1;P1;durP2;ratioP2;P2;SDS_P1;SDS_P2;PMS_P1;PMS_P2;Temp;Humidity;BMP_temperature;BMP_pressure;BME280_temperature;BME280_humidity;BME280_pressure;Samples;Min_cycle;Max_cycle;Signal;HPM_P1;HPM_P2
2022/10/15 00:01:34;;;;;;;23.25;17.17;;;;;;;13.13;89.87;100302.53;7393283;19;20077;-68
2022/10/15 00:04:02;;;;;;;21.08;16.25;;;;;;;13.13;89.75;100294.63;7396093;19;20073;-68
2022/10/15 00:06:31;;;;;;;21.90;16.55;;;;;;;13.13;90.00;100291.13;7396237;19;20037;-69
2022/10/15 00:09:00;;;;;;;23.25;16.80;;;;;;;13.12;89.75;100289.44;7396123;19;20018;-68
2022/10/15 00:11:30;;;;;;;20.90;16.63;;;;;;;13.13;89.94;100280.59;7394508;19;20031;-67
2022/10/15 00:14:01;;;;;;;22.80;17.52;;;;;;;13.13;90.13;100286.72;7397266;19;20022;-68
2022/10/15 00:16:31;;;;;;;23.15;17.17;;;;;;;13.13;89.88;100283.22;7395535;19;20070;-68
2022/10/15 00:19:01;;;;;;;23.13;16.83;;;;;;;13.13;89.75;100285.84;7395944;19;20082;-68
2022/10/15 00:21:30;;;;;;;28.25;18.00;;;;;;;13.13;89.87;100291.13;7394022;19;20094;-67
2022/10/15 00:23:59;;;;;;;23.67;18.33;;;;;;;13.12;89.94;100286.81;7395428;19;20505;-68
2022/10/15 00:26:29;;;;;;;24.60;18.33;;;;;;;13.11;89.84;100285.94;7395684;19;20426;-68
2022/10/15 00:29:03;;;;;;;24.23;17.48;;;;;;;13.11;89.86;100280.66;7395912;19;20015;-68
2022/10/15 00:31:33;;;;;;;24.13;17.13;;;;;;;13.12;89.78;100281.53;7394011;19;20035;-67
2022/10/15 00:34:03;;;;;;;24.65;17.15;;;;;;;13.11;89.94;100278.03;7395486;19;20035;-68
2022/10/15 00:36:34;;;;;;;23.85;17.98;;;;;;;13.10;90.01;100273.66;7394166;19;20505;-68
2022/10/15 00:39:02;;;;;;;27.08;19.80;;;;;;;13.10;89.95;100272.81;7395339;19;20082;-68
2022/10/15 00:41:33;;;;;;;23.05;18.27;;;;;;;13.09;89.72;100273.75;7393577;19;20026;-68
2022/10/15 00:44:25;;;;;;;22.77;17.20;;;;;;;13.09;89.76;100269.34;7394889;19;20019;-67
2022/10/15 00:46:58;;;;;;;25.55;17.60;;;;;;;13.08;89.73;100262.34;7393179;19;20039;-67
2022/10/15 00:49:32;;;;;;;24.70;17.40;;;;;;;13.08;89.95;100274.66;7395038;19;20091;-68
2022/10/15 00:52:04;;;;;;;25.73;16.33;;;;;;;13.08;89.69;100270.25;7395347;19;20010;-67
2022/10/15 00:54:37;;;;;;;22.25;17.67;;;;;;;13.07;89.45;100267.66;7393620;19;20083;-67
2022/10/15 00:57:07;;;;;;;28.13;17.90;;;;;;;13.08;89.73;100261.47;7394558;19;20070;-68
2022/10/15 00:59:42;;;;;;;22.80;16.50;;;;;;;13.08;89.79;100265.00;7392951;19;20074;-67
2022/10/15 01:02:12;;;;;;;23.63;16.63;;;;;;;13.09;89.61;100260.56;7393013;19;20484;-67
2022/10/15 01:04:42;;;;;;;21.35;16.15;;;;;;;13.08;89.59;100254.44;7394749;19;20023;-67
2022/10/15 01:07:11;;;;;;;21.58;16.90;;;;;;;13.10;89.63;100254.38;7394180;19;20078;-67
2022/10/15 01:09:41;;;;;;;23.60;17.17;;;;;;;13.10;89.64;100251.75;7394230;19;20015;-67
2022/10/15 01:12:18;;;;;;;22.75;17.13;;;;;;;13.11;89.60;100242.94;7394833;19;20021;-67
2022/10/15 01:15:00;;;;;;;23.67;16.90;;;;;;;13.10;90.09;100239.44;7402383;19;20082;-67
2022/10/15 01:17:35;;;;;;;21.88;16.70;;;;;;;13.10;89.84;100239.44;7402317;19;20066;-67
2022/10/15 01:20:28;;;;;;;22.67;16.55;;;;;;;13.12;90.10;100240.25;7401371;19;20018;-67
2022/10/15 01:23:16;;;;;;;21.90;16.90;;;;;;;13.13;89.99;100241.09;7402181;19;20086;-67
2022/10/15 01:25:57;;;;;;;20.77;16.42;;;;;;;13.12;89.76;100229.69;7398407;19;20078;-67
2022/10/15 01:28:40;;;;;;;19.27;16.02;;;;;;;13.12;89.50;100227.06;7401432;19;20428;-67
2022/10/15 01:31:22;;;;;;;24.85;16.88;;;;;;;13.12;89.63;100226.22;7399716;19;20078;-69
2022/10/15 01:34:02;;;;;;;21.25;16.48;;;;;;;13.13;89.75;100225.28;7401502;19;20078;-66
2022/10/15 01:36:39;;;;;;;19.60;15.05;;;;;;;13.12;89.79;100219.16;7398441;19;20082;-66
2022/10/15 01:39:16;;;;;;;19.00;16.08;;;;;;;13.13;89.83;100214.75;7400932;19;20021;-67
2022/10/15 01:41:46;;;;;;;21.23;17.08;;;;;;;13.14;89.95;100217.34;7398444;19;20257;-66
2022/10/15 01:44:20;;;;;;;23.05;16.20;;;;;;;13.13;89.94;100212.97;7401036;19;20019;-67
2022/10/15 01:46:57;;;;;;;22.20;16.17;;;;;;;13.13;89.91;100207.72;7401432;19;20074;-68
2022/10/15 01:49:31;;;;;;;21.30;14.80;;;;;;;13.14;89.86;100209.44;7401257;19;20022;-68
2022/10/15 01:52:04;;;;;;;19.13;15.52;;;;;;;13.13;90.11;100205.09;7400771;19;20082;-68
2022/10/15 01:54:33;;;;;;;19.73;15.30;;;;;;;13.16;90.17;100202.31;7397815;19;20078;-68
2022/10/15 01:57:02;;;;;;;20.98;16.20;;;;;;;13.16;89.94;100204.94;7400678;19;20477;-68
2022/10/15 01:59:33;;;;;;;20.80;15.57;;;;;;;13.17;89.97;100216.34;7399802;19;20381;-68
2022/10/15 02:02:04;;;;;;;20.60;14.98;;;;;;;13.18;90.10;100218.03;7397197;19;20086;-68
2022/10/15 02:04:33;;;;;;;18.63;14.48;;;;;;;13.17;90.05;100209.28;7400373;19;20410;-68
2022/10/15 02:07:06;;;;;;;20.75;14.90;;;;;;;13.18;90.04;100221.56;7400215;19;20090;-67
2022/10/15 02:09:47;;;;;;;20.83;16.60;;;;;;;13.19;89.69;100214.50;7397998;19;20078;-68
2022/10/15 02:12:31;;;;;;;19.13;15.13;;;;;;;13.20;90.11;100216.22;7400545;19;20014;-68
2022/10/15 02:15:04;;;;;;;19.80;14.75;;;;;;;13.20;90.00;100210.94;7397090;19;20568;-68
2022/10/15 02:17:40;;;;;;;20.65;14.73;;;;;;;13.20;90.41;100205.69;7399510;19;20380;-68
2022/10/15 02:20:15;;;;;;;16.05;13.93;;;;;;;13.19;89.96;100202.19;7399252;19;20350;-68
2022/10/15 02:22:50;;;;;;;17.75;14.85;;;;;;;13.20;90.22;100198.66;7398187;19;20021;-68
2022/10/15 02:25:22;;;;;;;20.00;14.98;;;;;;;13.20;90.21;100201.28;7399354;19;20022;-66
2022/10/15 02:27:54;;;;;;;17.50;13.82;;;;;;;13.21;90.14;100196.88;7399273;19;20544;-67
2022/10/15 02:30:23;;;;;;;18.77;14.35;;;;;;;13.20;90.34;100187.25;7399020;19;20465;-67
2022/10/15 02:32:58;;;;;;;18.40;14.63;;;;;;;13.21;90.31;100196.88;7399397;19;20014;-67
2022/10/15 02:35:28;;;;;;;20.50;13.98;;;;;;;13.20;90.26;100188.13;7399338;19;20022;-68
2022/10/15 02:38:00;;;;;;;18.42;13.93;;;;;;;13.20;90.23;100189.88;7397070;19;20528;-68
2022/10/15 02:40:31;;;;;;;19.05;14.63;;;;;;;13.18;90.54;100186.44;7398295;19;20074;-68
2022/10/15 02:43:01;;;;;;;20.20;15.38;;;;;;;13.16;90.35;100186.50;7396652;19;20014;-67
2022/10/15 02:45:30;;;;;;;22.98;14.02;;;;;;;13.16;90.31;100186.50;7398937;19;20101;-67
2022/10/15 02:48:01;;;;;;;16.83;14.02;;;;;;;13.15;90.55;100187.41;7396615;19;20015;-68
2022/10/15 02:50:29;;;;;;;16.77;14.27;;;;;;;13.14;90.22;100180.47;7396157;19;20501;-67
2022/10/15 02:52:58;;;;;;;20.48;14.93;;;;;;;13.12;90.74;100178.81;7399439;19;20025;-67
2022/10/15 02:55:26;;;;;;;17.38;14.90;;;;;;;13.10;90.68;100181.50;7396458;19;20082;-68
2022/10/15 02:57:55;;;;;;;22.02;17.45;;;;;;;13.09;90.61;100189.47;7398138;19;20015;-67
2022/10/15 03:00:23;;;;;;;18.20;15.25;;;;;;;13.06;90.77;100184.34;7397422;19;20078;-67
2022/10/15 03:02:52;;;;;;;19.48;14.10;;;;;;;13.02;90.96;100179.19;7396558;19;20025;-67
2022/10/15 03:05:23;;;;;;;17.88;15.27;;;;;;;13.00;90.71;100173.13;7396242;19;20094;-69
2022/10/15 03:07:52;;;;;;;20.92;15.07;;;;;;;12.97;91.12;100178.50;7396320;19;20078;-67
2022/10/15 03:10:20;;;;;;;18.77;15.20;;;;;;;12.95;91.06;100177.69;7397150;19;20037;-67
2022/10/15 03:12:49;;;;;;;23.67;15.75;;;;;;;12.93;91.04;100173.41;7398062;19;20391;-68
2022/10/15 03:15:17;;;;;;;18.30;14.95;;;;;;;12.92;91.18;100174.38;7398230;19;20081;-67
2022/10/15 03:17:46;;;;;;;18.55;15.52;;;;;;;12.89;91.23;100177.97;7395767;19;20078;-67
2022/10/15 03:20:14;;;;;;;17.75;14.60;;;;;;;12.87;91.25;100175.38;7397086;19;20014;-67
2022/10/15 03:22:45;;;;;;;21.55;15.15;;;;;;;12.87;91.18;100177.19;7395785;19;20087;-67
2022/10/15 03:25:14;;;;;;;17.73;14.68;;;;;;;12.86;91.55;100175.44;7396076;19;20095;-67
2022/10/15 03:27:42;;;;;;;19.20;15.25;;;;;;;12.84;91.40;100170.25;7397761;19;20027;-67
2022/10/15 03:30:12;;;;;;;19.70;15.65;;;;;;;12.83;91.50;100168.53;7394909;19;20085;-66
2022/10/15 03:32:40;;;;;;;20.42;16.45;;;;;;;12.80;91.68;100171.31;7397328;19;20014;-68
2022/10/15 03:35:10;;;;;;;25.08;18.02;;;;;;;12.78;91.79;100164.41;7393304;19;20539;-67
2022/10/15 03:37:38;;;;;;;20.25;15.25;;;;;;;12.77;91.67;100171.41;7395410;19;20010;-66
2022/10/15 03:40:10;;;;;;;19.85;15.48;;;;;;;12.74;91.81;100168.03;7395049;19;20081;-67
2022/10/15 03:42:39;;;;;;;19.48;15.02;;;;;;;12.71;92.14;100169.03;7395862;19;20029;-69
2022/10/15 03:45:09;;;;;;;21.35;14.32;;;;;;;12.70;92.31;100172.56;7398269;19;20074;-69
2022/10/15 03:47:38;;;;;;;26.65;15.25;;;;;;;12.69;92.05;100181.41;7397291;19;20082;-70
2022/10/15 03:50:07;;;;;;;17.27;14.65;;;;;;;12.67;92.39;100172.69;7396395;19;20148;-70
2022/10/15 03:52:35;;;;;;;18.40;13.90;;;;;;;12.66;92.53;100174.50;7396722;19;20485;-70
2022/10/15 03:55:04;;;;;;;19.42;14.82;;;;;;;12.64;92.71;100170.22;7396788;19;20078;-70
2022/10/15 03:57:35;;;;;;;21.20;15.48;;;;;;;12.63;92.94;100168.47;7397151;19;20014;-71
2022/10/15 04:00:04;;;;;;;19.52;14.65;;;;;;;12.60;92.54;100169.47;7395301;19;20359;-71
2022/10/15 04:02:39;;;;;;;19.00;14.23;;;;;;;12.60;93.14;100173.84;7395807;19;20485;-70
2022/10/15 04:05:08;;;;;;;18.30;13.88;;;;;;;12.58;93.05;100170.44;7397003;19;20036;-70
2022/10/15 04:07:37;;;;;;;18.55;13.75;;;;;;;12.55;93.13;100169.63;7394777;19;20018;-69
2022/10/15 04:10:06;;;;;;;17.45;14.20;;;;;;;12.57;93.35;100171.34;7396202;19;20031;-69
2022/10/15 04:12:37;;;;;;;17.65;13.55;;;;;;;12.55;93.22;100174.91;7396165;19;20040;-70
2022/10/15 04:15:06;;;;;;;17.80;13.75;;;;;;;12.54;93.35;100170.53;7395775;19;20074;-70
2022/10/15 04:17:35;;;;;;;19.33;14.10;;;;;;;12.54;93.23;100173.19;7396495;19;20087;-71
2022/10/15 04:20:04;;;;;;;16.17;13.98;;;;;;;12.54;93.81;100170.53;7395793;19;20082;-72
2022/10/15 04:22:32;;;;;;;15.40;12.63;;;;;;;12.55;93.83;100171.44;7394568;19;20098;-70
2022/10/15 04:25:07;;;;;;;15.65;13.93;;;;;;;12.57;93.97;100177.47;7395660;19;20027;-68
2022/10/15 04:27:38;;;;;;;19.75;14.20;;;;;;;12.59;93.84;100169.53;7397872;19;20540;-69
2022/10/15 04:30:08;;;;;;;17.90;13.57;;;;;;;12.60;93.94;100174.72;7393325;19;20484;-70
2022/10/15 04:32:36;;;;;;;16.70;13.40;;;;;;;12.62;93.71;100174.66;7395360;19;20101;-70
2022/10/15 04:35:05;;;;;;;16.27;13.13;;;;;;;12.65;93.94;100175.41;7395184;19;20078;-70
2022/10/15 04:37:35;;;;;;;15.88;13.05;;;;;;;12.67;94.36;100170.06;7393804;19;20014;-70
2022/10/15 04:40:03;;;;;;;14.50;12.20;;;;;;;12.69;94.44;100178.78;7394289;19;20458;-69
2022/10/15 04:42:32;;;;;;;18.15;12.90;;;;;;;12.72;94.47;100173.38;7395882;19;20021;-69
2022/10/15 04:45:03;;;;;;;15.20;12.32;;;;;;;12.74;94.40;100165.41;7398961;19;20014;-70
2022/10/15 04:47:32;;;;;;;16.20;12.05;;;;;;;12.75;94.60;100169.75;7397883;19;20031;-70
2022/10/15 04:50:00;;;;;;;16.48;11.70;;;;;;;12.75;94.65;100165.38;7395975;19;20022;-70
2022/10/15 04:52:29;;;;;;;15.30;11.65;;;;;;;12.79;94.67;100164.31;7393295;19;20031;-70
2022/10/15 04:54:57;;;;;;;17.02;12.18;;;;;;;12.79;94.65;100172.22;7395244;19;20010;-70
2022/10/15 04:57:26;;;;;;;14.73;12.18;;;;;;;12.80;95.03;100163.41;7395254;19;20032;-69
2022/10/15 04:59:55;;;;;;;13.32;11.23;;;;;;;12.81;94.80;100165.09;7392948;19;20011;-70
2022/10/15 05:02:26;;;;;;;14.02;10.00;;;;;;;12.81;94.55;100162.47;7394024;19;20015;-70
2022/10/15 05:04:55;;;;;;;13.45;10.55;;;;;;;12.82;94.63;100158.91;7395257;19;20015;-70
2022/10/15 05:07:23;;;;;;;14.02;11.77;;;;;;;12.81;94.94;100165.09;7394963;19;20422;-70
2022/10/15 05:09:52;;;;;;;18.30;11.85;;;;;;;12.81;95.11;100173.00;7392648;19;20011;-70
2022/10/15 05:12:20;;;;;;;16.88;11.18;;;;;;;12.81;95.02;100169.53;7394663;19;20035;-70
2022/10/15 05:14:49;;;;;;;14.75;11.32;;;;;;;12.80;95.14;100167.81;7394565;19;20014;-70
2022/10/15 05:17:17;;;;;;;14.93;10.80;;;;;;;12.79;95.06;100171.34;7394466;19;20074;-70
2022/10/15 05:19:48;;;;;;;12.82;11.35;;;;;;;12.77;94.96;100174.03;7393389;19;20509;-70
2022/10/15 05:22:17;;;;;;;13.95;11.68;;;;;;;12.75;95.07;100168.00;7391801;19;20078;-70
2022/10/15 05:24:45;;;;;;;14.48;10.57;;;;;;;12.74;95.20;100182.09;7392232;19;20069;-69
2022/10/15 05:27:14;;;;;;;15.88;11.63;;;;;;;12.70;95.32;100177.84;7394468;19;20090;-70
2022/10/15 05:29:42;;;;;;;13.30;10.43;;;;;;;12.70;95.34;100177.84;7393375;19;20371;-70
2022/10/15 05:32:10;;;;;;;14.30;10.95;;;;;;;12.68;95.54;100183.16;7394065;19;20077;-70
2022/10/15 05:34:39;;;;;;;14.25;11.82;;;;;;;12.67;95.16;100180.59;7393507;19;20418;-70
2022/10/15 05:37:11;;;;;;;16.52;11.75;;;;;;;12.64;95.56;100178.94;7392924;19;20078;-70
2022/10/15 05:39:39;;;;;;;14.10;11.73;;;;;;;12.64;95.63;100183.38;7392360;19;20011;-70
2022/10/15 05:42:08;;;;;;;15.90;12.57;;;;;;;12.63;95.61;100190.38;7392919;19;20093;-70
2022/10/15 05:44:36;;;;;;;16.55;11.43;;;;;;;12.62;95.61;100193.09;7393716;19;20019;-68
2022/10/15 05:47:05;;;;;;;14.30;11.18;;;;;;;12.59;95.66;100195.84;7393755;19;20070;-70
2022/10/15 05:49:33;;;;;;;17.17;11.98;;;;;;;12.59;95.73;100201.97;7391213;19;20037;-71
2022/10/15 05:52:02;;;;;;;12.75;11.20;;;;;;;12.59;96.02;100195.84;7393712;19;20078;-69
2022/10/15 05:54:33;;;;;;;14.32;11.05;;;;;;;12.57;96.00;100195.88;7393509;19;20078;-70
2022/10/15 05:57:01;;;;;;;14.63;12.13;;;;;;;12.58;96.12;100194.97;7394232;19;20085;-70
2022/10/15 05:59:30;;;;;;;16.27;11.48;;;;;;;12.57;96.02;100201.16;7397071;19;20073;-70
2022/10/15 06:01:58;;;;;;;14.65;11.23;;;;;;;12.57;96.35;100198.50;7400507;19;20540;-70
2022/10/15 06:04:27;;;;;;;18.88;13.13;;;;;;;12.57;96.64;100193.25;7398225;19;20086;-71
2022/10/15 06:06:55;;;;;;;15.52;12.15;;;;;;;12.59;96.57;100195.84;7400661;19;20093;-71
2022/10/15 06:09:24;;;;;;;15.20;11.90;;;;;;;12.58;96.65;100194.97;7400804;19;20086;-70
2022/10/15 06:11:55;;;;;;;14.63;11.15;;;;;;;12.61;96.90;100201.88;7400050;19;20484;-71
2022/10/15 06:14:23;;;;;;;16.90;11.25;;;;;;;12.62;96.89;100207.09;7400118;19;20074;-70
2022/10/15 06:16:53;;;;;;;13.75;11.35;;;;;;;12.66;97.18;100210.47;7397645;19;20432;-70
2022/10/15 06:19:22;;;;;;;14.38;11.27;;;;;;;12.69;97.01;100213.84;7400263;19;20035;-70
2022/10/15 06:21:50;;;;;;;12.93;11.32;;;;;;;12.71;97.13;100214.66;7397406;19;20023;-70
2022/10/15 06:24:19;;;;;;;14.88;11.15;;;;;;;12.76;97.41;100218.84;7397182;19;20513;-70
2022/10/15 06:26:47;;;;;;;16.55;11.20;;;;;;;12.78;97.37;100220.50;7400464;19;20081;-70
2022/10/15 06:29:18;;;;;;;13.82;9.95;;;;;;;12.83;97.41;100225.59;7400556;19;20085;-71
2022/10/15 06:31:47;;;;;;;14.65;11.75;;;;;;;12.86;97.38;100223.72;7397268;19;20023;-71
2022/10/15 06:34:15;;;;;;;13.32;11.02;;;;;;;12.90;97.29;100229.69;7399152;19;20413;-71
2022/10/15 06:36:44;;;;;;;11.48;10.05;;;;;;;12.94;97.59;100225.16;7398833;19;20497;-71
2022/10/15 06:39:12;;;;;;;13.20;11.15;;;;;;;12.98;97.64;100237.31;7396356;19;20090;-70
2022/10/15 06:41:41;;;;;;;12.93;10.75;;;;;;;13.02;97.63;100231.00;7397122;19;20041;-71
2022/10/15 06:44:09;;;;;;;13.60;10.52;;;;;;;13.04;97.48;100235.28;7397182;19;20082;-71
2022/10/15 06:46:41;;;;;;;10.85;9.60;;;;;;;13.08;97.56;100238.66;7399666;19;20082;-71
2022/10/15 06:49:09;;;;;;;13.70;10.25;;;;;;;13.13;97.56;100234.06;7398431;19;20070;-70
2022/10/15 06:51:38;;;;;;;14.43;10.07;;;;;;;13.17;97.28;100232.16;7397493;19;20087;-70
2022/10/15 06:54:07;;;;;;;11.88;9.43;;;;;;;13.20;97.56;100243.44;7399721;19;20018;-70
2022/10/15 06:56:35;;;;;;;10.30;9.02;;;;;;;13.24;97.57;100241.50;7399710;19;20039;-70
2022/10/15 06:59:04;;;;;;;9.57;8.45;;;;;;;13.29;97.56;100241.31;7398745;19;20427;-69
2022/10/15 07:01:32;;;;;;;11.30;8.90;;;;;;;13.32;97.35;100252.59;7397104;19;20006;-70
2022/10/15 07:04:03;;;;;;;10.05;8.38;;;;;;;13.37;97.39;100252.44;7397631;19;20014;-71
2022/10/15 07:06:32;;;;;;;10.18;8.93;;;;;;;13.41;97.18;100245.25;7397198;19;20031;-70
2022/10/15 07:09:03;;;;;;;9.77;8.13;;;;;;;13.46;96.94;100261.75;7399073;19;20089;-70
2022/10/15 07:11:31;;;;;;;9.00;7.50;;;;;;;13.50;97.31;100258.91;7393800;19;20078;-69
2022/10/15 07:14:00;;;;;;;10.20;8.18;;;;;;;13.55;96.77;100261.38;7398743;19;20010;-72
2022/10/15 07:16:28;;;;;;;9.13;7.97;;;;;;;13.58;96.84;100258.59;7397359;19;20376;-71
2022/10/15 07:18:57;;;;;;;8.98;7.63;;;;;;;13.63;96.70;100264.50;7397160;19;20014;-72
2022/10/15 07:21:28;;;;;;;9.30;8.30;;;;;;;13.68;96.72;100252.00;7396936;19;20035;-71
2022/10/15 07:23:58;;;;;;;19.05;12.38;;;;;;;13.74;96.23;100247.41;7397343;19;20070;-71
2022/10/15 07:26:28;;;;;;;12.48;9.05;;;;;;;13.81;96.10;100251.47;7398630;19;20015;-70
2022/10/15 07:28:56;;;;;;;11.25;7.93;;;;;;;13.85;96.36;100248.66;7395448;19;20481;-70
2022/10/15 07:31:25;;;;;;;8.05;7.25;;;;;;;13.93;95.89;100242.19;7395536;19;20035;-69
2022/10/15 07:33:53;;;;;;;7.88;6.28;;;;;;;13.98;95.86;100248.97;7396611;19;20418;-71
2022/10/15 07:36:22;;;;;;;7.38;6.60;;;;;;;14.04;95.76;100247.84;7397187;19;20023;-70
2022/10/15 07:38:53;;;;;;;6.82;6.07;;;;;;;14.10;95.28;100239.69;7395590;19;20082;-70
2022/10/15 07:41:22;;;;;;;8.05;6.72;;;;;;;14.17;94.95;100243.72;7395882;19;20082;-70
2022/10/15 07:43:53;;;;;;;7.47;6.50;;;;;;;14.22;94.78;100240.06;7395534;19;20420;-71
2022/10/15 07:46:22;;;;;;;5.60;5.00;;;;;;;14.24;94.48;100241.69;7396367;19;20086;-70
2022/10/15 07:48:50;;;;;;;5.90;4.90;;;;;;;14.27;94.40;100248.63;7396538;19;20506;-71
2022/10/15 07:51:18;;;;;;;5.72;4.75;;;;;;;14.31;94.08;100258.09;7395287;19;20078;-70
2022/10/15 07:53:47;;;;;;;7.32;5.68;;;;;;;14.34;93.82;100256.19;7396571;19;20015;-69
2022/10/15 07:56:18;;;;;;;5.70;5.00;;;;;;;14.38;93.80;100270.09;7396515;19;20505;-70
2022/10/15 07:58:50;;;;;;;5.57;5.03;;;;;;;14.44;93.68;100271.59;7396129;19;20014;-70
2022/10/15 08:01:20;;;;;;;6.72;6.00;;;;;;;14.50;93.18;100269.50;7395483;19;20018;-70
2022/10/15 08:03:48;;;;;;;7.32;5.15;;;;;;;14.57;92.57;100272.75;7395209;19;20086;-70
2022/10/15 08:06:18;;;;;;;6.57;5.18;;;;;;;14.66;92.31;100279.44;7396780;19;20022;-70
2022/10/15 08:08:46;;;;;;;5.97;4.82;;;;;;;14.75;92.21;100275.50;7396548;19;20014;-69
2022/10/15 08:11:19;;;;;;;5.78;5.18;;;;;;;14.85;91.43;100275.91;7394794;19;20082;-70
2022/10/15 08:13:48;;;;;;;7.15;5.05;;;;;;;14.93;91.08;100276.41;7396930;19;20040;-70
2022/10/15 08:16:18;;;;;;;5.78;5.13;;;;;;;14.99;90.68;100266.41;7394655;19;20021;-70
2022/10/15 08:18:47;;;;;;;6.38;3.97;;;;;;;15.05;90.48;100273.19;7396221;19;20018;-70
2022/10/15 08:21:15;;;;;;;5.68;5.00;;;;;;;15.10;89.94;100271.19;7393919;19;20035;-70
2022/10/15 08:23:43;;;;;;;6.00;5.32;;;;;;;15.17;89.87;100281.47;7395097;19;20086;-71
2022/10/15 08:26:12;;;;;;;6.63;5.38;;;;;;;15.21;89.57;100281.22;7395406;19;20548;-71
2022/10/15 08:28:43;;;;;;;5.75;4.82;;;;;;;15.28;89.45;100292.38;7393775;19;20014;-71
2022/10/15 08:31:12;;;;;;;6.65;5.68;;;;;;;15.32;88.84;100286.00;7394517;19;20019;-71
2022/10/15 08:33:41;;;;;;;5.60;5.07;;;;;;;15.37;88.64;100289.25;7395418;19;20037;-70
2022/10/15 08:36:10;;;;;;;7.63;6.85;;;;;;;15.41;88.64;100289.97;7393939;19;20018;-70
2022/10/15 08:38:38;;;;;;;15.95;9.63;;;;;;;15.45;88.51;100280.94;7393139;19;20119;-71
2022/10/15 08:41:21;;;;;;;9.40;8.10;;;;;;;15.52;88.12;100284.13;7394092;19;20039;-70
2022/10/15 08:43:53;;;;;;;8.43;6.35;;;;;;;15.54;87.77;100283.13;7394282;19;20074;-70
2022/10/15 08:46:27;;;;;;;5.75;5.15;;;;;;;15.61;87.54;100289.00;7395299;19;20429;-71
2022/10/15 08:48:57;;;;;;;6.25;5.53;;;;;;;15.65;87.20;100285.25;7395123;19;20564;-70
2022/10/15 08:51:28;;;;;;;6.03;5.43;;;;;;;15.72;86.91;100283.13;7393895;19;20090;-70
2022/10/15 08:53:59;;;;;;;5.80;5.00;;;;;;;15.76;86.53;100280.28;7395790;19;20073;-70
2022/10/15 08:56:35;;;;;;;6.60;4.85;;;;;;;15.82;86.36;100283.56;7395686;19;20074;-70
2022/10/15 08:59:16;;;;;;;7.38;5.85;;;;;;;15.89;86.32;100279.69;7395781;19;20074;-69
2022/10/15 09:01:52;;;;;;;7.20;5.47;;;;;;;15.96;86.21;100283.69;7393669;19;20087;-70
2022/10/15 09:04:31;;;;;;;6.38;4.97;;;;;;;16.02;85.90;100279.91;7394531;19;20026;-70
2022/10/15 09:07:08;;;;;;;5.72;4.85;;;;;;;16.08;85.48;100287.53;7394819;19;20487;-70
2022/10/15 09:09:45;;;;;;;5.20;4.35;;;;;;;16.13;85.04;100288.97;7393429;19;20409;-70
2022/10/15 09:12:29;;;;;;;5.80;4.18;;;;;;;16.18;84.57;100295.84;7392774;19;20134;-70
2022/10/15 09:15:01;;;;;;;6.20;4.10;;;;;;;16.22;84.39;100302.69;7394986;19;20140;-71
2022/10/15 09:17:36;;;;;;;4.50;4.03;;;;;;;16.24;83.83;100298.16;7395068;19;20086;-70
2022/10/15 09:20:08;;;;;;;5.60;4.00;;;;;;;16.26;83.66;100305.09;7393719;19;20339;-70
2022/10/15 09:22:37;;;;;;;4.50;3.67;;;;;;;16.30;83.60;100303.13;7395074;19;20011;-71
2022/10/15 09:25:16;;;;;;;4.38;3.97;;;;;;;16.34;82.48;100303.81;7392450;19;20025;-71
2022/10/15 09:27:47;;;;;;;4.90;3.47;;;;;;;16.37;82.36;100303.66;7394877;19;20010;-71
2022/10/15 09:30:35;;;;;;;5.05;3.25;;;;;;;16.39;81.72;100309.72;7393015;19;20018;-70
2022/10/15 09:33:10;;;;;;;5.22;3.42;;;;;;;16.39;81.96;100307.94;7391337;19;20011;-68
2022/10/15 09:35:44;;;;;;;5.05;3.45;;;;;;;16.41;82.63;100303.41;7400944;19;20078;-67
2022/10/15 09:38:27;;;;;;;5.20;3.55;;;;;;;16.47;82.12;100304.88;7399628;19;20075;-71
2022/10/15 09:41:15;;;;;;;4.20;3.30;;;;;;;16.50;81.50;100302.06;7399482;19;20018;-68
2022/10/15 09:43:48;;;;;;;5.03;3.53;;;;;;;16.53;81.15;100306.34;7398282;19;20465;-68
2022/10/15 09:46:19;;;;;;;4.43;2.85;;;;;;;16.55;81.22;100309.75;7401379;19;20018;-67
2022/10/15 09:48:53;;;;;;;3.17;2.85;;;;;;;16.54;80.93;100305.41;7401175;19;20089;-69
2022/10/15 09:51:27;;;;;;;3.20;2.75;;;;;;;16.60;80.34;100313.91;7399561;19;20018;-68
2022/10/15 09:54:04;;;;;;;3.63;2.72;;;;;;;16.65;80.08;100316.28;7398338;19;20036;-67
2022/10/15 09:56:38;;;;;;;3.17;2.88;;;;;;;16.73;80.07;100318.50;7400619;19;20070;-68
2022/10/15 09:59:07;;;;;;;3.55;2.83;;;;;;;16.77;79.74;100320.91;7397806;19;20022;-68
2022/10/15 10:01:38;;;;;;;3.67;2.60;;;;;;;16.82;79.57;100318.03;7398243;19;20573;-67
2022/10/15 10:04:30;;;;;;;4.63;2.65;;;;;;;16.85;79.54;100307.25;7400460;19;20014;-67
2022/10/15 10:07:00;;;;;;;3.35;2.67;;;;;;;16.86;79.38;100311.59;7399194;19;20080;-68
2022/10/15 10:09:34;;;;;;;3.05;2.42;;;;;;;16.93;78.74;100314.78;7398509;19;20014;-69
2022/10/15 10:12:05;;;;;;;3.40;2.53;;;;;;;16.97;78.77;100320.78;7398646;19;20086;-69
2022/10/15 10:14:37;;;;;;;2.83;2.25;;;;;;;17.00;78.19;100328.59;7401815;19;20018;-68
2022/10/15 10:17:18;;;;;;;2.17;1.88;;;;;;;17.02;78.03;100335.50;7400105;19;20014;-69
2022/10/15 10:20:03;;;;;;;2.50;2.30;;;;;;;17.06;78.37;100330.88;7400178;19;20031;-68
2022/10/15 10:22:32;;;;;;;3.40;2.08;;;;;;;17.09;77.95;100322.75;7397376;19;20500;-68
2022/10/15 10:25:00;;;;;;;2.75;2.10;;;;;;;17.13;77.80;100326.94;7397919;19;20074;-68
2022/10/15 10:27:38;;;;;;;3.33;2.25;;;;;;;17.15;77.29;100330.38;7408780;19;20027;-69
2022/10/15 10:30:09;;;;;;;3.70;2.78;;;;;;;17.17;77.11;100333.78;7397296;19;20098;-70
2022/10/15 10:32:42;;;;;;;2.95;2.30;;;;;;;17.18;77.12;100337.31;7401176;19;20011;-69
2022/10/15 10:35:23;;;;;;;2.85;2.30;;;;;;;17.18;76.80;100342.59;7397614;19;20023;-68
2022/10/15 10:38:05;;;;;;;3.75;1.88;;;;;;;17.16;76.87;100341.81;7397956;19;20014;-68
2022/10/15 10:40:37;;;;;;;2.28;2.08;;;;;;;17.13;77.40;100336.69;7398990;19;20094;-69
2022/10/15 10:43:14;;;;;;;3.85;2.58;;;;;;;17.13;77.26;100336.69;7397379;19;20529;-70
2022/10/15 10:45:54;;;;;;;3.42;2.00;;;;;;;17.10;77.68;100333.28;7397103;19;20488;-69
2022/10/15 10:48:28;;;;;;;2.20;1.85;;;;;;;17.16;77.09;100336.50;7399532;19;20037;-67
2022/10/15 10:51:07;;;;;;;;;;;;;;;17.16;77.12;100339.16;7398805;19;20031;-69
2022/10/15 10:53:39;;;;;;;3.20;2.00;;;;;;;17.17;77.59;100343.53;7399424;19;19995;-69
2022/10/15 10:56:12;;;;;;;3.55;1.75;;;;;;;17.17;77.59;100335.59;7398884;19;20027;-70
2022/10/15 10:58:41;;;;;;;2.10;1.90;;;;;;;17.22;77.69;100339.66;7399335;19;20023;-68
2022/10/15 11:01:13;;;;;;;3.17;2.10;;;;;;;17.26;77.27;100340.34;7397549;19;20093;-67
2022/10/15 11:03:48;;;;;;;3.42;2.85;;;;;;;17.30;77.54;100346.34;7396438;19;20421;-67
2022/10/15 11:06:36;;;;;;;3.03;2.35;;;;;;;17.35;77.18;100339.00;7399267;19;20025;-68
2022/10/15 11:09:16;;;;;;;3.05;2.30;;;;;;;17.38;77.12;100337.03;7398346;19;20078;-68
2022/10/15 11:11:56;;;;;;;4.43;2.70;;;;;;;17.41;76.84;100331.56;7396435;19;20414;-68
2022/10/15 11:14:35;;;;;;;2.65;1.95;;;;;;;17.45;76.80;100334.03;7398358;19;20074;-68
2022/10/15 11:17:14;;;;;;;2.40;1.90;;;;;;;17.47;76.82;100338.28;7398414;19;20566;-69
2022/10/15 11:19:53;;;;;;;3.78;2.65;;;;;;;17.50;76.55;100327.53;7396408;19;20368;-69
2022/10/15 11:22:42;;;;;;;4.88;3.42;;;;;;;17.53;76.18;100327.34;7397895;19;20492;-68
2022/10/15 11:25:22;;;;;;;2.80;2.30;;;;;;;17.56;76.03;100329.81;7397279;19;20074;-69
2022/10/15 11:28:05;;;;;;;3.85;2.53;;;;;;;17.60;75.50;100325.19;7397379;19;20544;-68
2022/10/15 11:30:48;;;;;;;4.40;2.60;;;;;;;17.61;75.92;100316.28;7396365;19;20031;-69
2022/10/15 11:33:31;;;;;;;4.22;2.05;;;;;;;17.66;75.51;100322.16;7398071;19;20091;-68
2022/10/15 11:36:21;;;;;;;2.40;2.20;;;;;;;17.68;74.32;100330.03;7397985;19;20018;-68
2022/10/15 11:39:00;;;;;;;7.43;2.30;;;;;;;17.67;74.93;100320.38;7396897;19;20101;-68